sensor_id;sensor_type;location;lat;lon;timestamp;temperature;humidity
35804;DHT22;21924;51.934;7.414;2022-07-18T00:02:36;18.80;92.30
35804;DHT22;21924;51.934;7.414;2022-07-18T00:05:21;18.70;92.40
35804;DHT22;21924;51.934;7.414;2022-07-18T00:08:05;18.70;92.30
35804;DHT22;21924;51.934;7.414;2022-07-18T00:10:50;18.70;92.30
35804;DHT22;21924;51.934;7.414;2022-07-18T00:13:34;18.60;92.20
35804;DHT22;21924;51.934;7.414;2022-07-18T00:16:19;18.60;92.30
35804;DHT22;21924;51.934;7.414;2022-07-18T00:19:04;18.60;92.30
35804;DHT22;21924;51.934;7.414;2022-07-18T03:26:48;16.90;95.70
35804;DHT22;21924;51.934;7.414;2022-07-18T03:37:51;16.60;96.20
35804;DHT22;21924;51.934;7.414;2022-07-18T03:40:36;16.50;96.50
35804;DHT22;21924;51.934;7.414;2022-07-18T03:43:20;16.50;96.70
35804;DHT22;21924;51.934;7.414;2022-07-18T03:46:05;16.50;96.80
35804;DHT22;21924;51.934;7.414;2022-07-18T03:48:50;16.60;96.80
35804;DHT22;21924;51.934;7.414;2022-07-18T03:51:34;16.60;96.70
35804;DHT22;21924;51.934;7.414;2022-07-18T03:54:19;16.60;96.80
35804;DHT22;21924;51.934;7.414;2022-07-18T03:57:03;16.50;97.00
35804;DHT22;21924;51.934;7.414;2022-07-18T03:59:47;16.50;97.10
35804;DHT22;21924;51.934;7.414;2022-07-18T04:02:32;16.50;97.20
35804;DHT22;21924;51.934;7.414;2022-07-18T04:05:17;16.50;97.30
35804;DHT22;21924;51.934;7.414;2022-07-18T04:08:02;16.50;97.40
35804;DHT22;21924;51.934;7.414;2022-07-18T04:10:47;16.50;97.40
35804;DHT22;21924;51.934;7.414;2022-07-18T04:13:31;16.50;97.40
35804;DHT22;21924;51.934;7.414;2022-07-18T04:16:16;16.50;97.50
35804;DHT22;21924;51.934;7.414;2022-07-18T04:19:00;16.50;97.70
35804;DHT22;21924;51.934;7.414;2022-07-18T04:21:44;16.40;98.10
35804;DHT22;21924;51.934;7.414;2022-07-18T04:24:29;16.50;98.20
35804;DHT22;21924;51.934;7.414;2022-07-18T04:27:13;16.50;98.20
35804;DHT22;21924;51.934;7.414;2022-07-18T04:29:58;16.70;98.10
35804;DHT22;21924;51.934;7.414;2022-07-18T04:32:42;17.00;97.70
35804;DHT22;21924;51.934;7.414;2022-07-18T04:35:26;17.10;97.40
35804;DHT22;21924;51.934;7.414;2022-07-18T04:38:11;17.30;97.60
35804;DHT22;21924;51.934;7.414;2022-07-18T04:40:55;17.30;97.20
35804;DHT22;21924;51.934;7.414;2022-07-18T04:43:39;17.40;97.10
35804;DHT22;21924;51.934;7.414;2022-07-18T04:46:24;17.60;97.00
35804;DHT22;21924;51.934;7.414;2022-07-18T04:49:08;17.80;96.60
35804;DHT22;21924;51.934;7.414;2022-07-18T04:51:52;18.00;96.40
35804;DHT22;21924;51.934;7.414;2022-07-18T04:54:36;18.00;96.10
35804;DHT22;21924;51.934;7.414;2022-07-18T04:57:21;18.20;96.20
35804;DHT22;21924;51.934;7.414;2022-07-18T05:00:11;18.10;96.10
35804;DHT22;21924;51.934;7.414;2022-07-18T05:02:57;18.00;96.10
35804;DHT22;21924;51.934;7.414;2022-07-18T05:05:41;18.20;96.30
35804;DHT22;21924;51.934;7.414;2022-07-18T05:08:25;18.10;96.00
35804;DHT22;21924;51.934;7.414;2022-07-18T05:11:10;18.10;96.20
35804;DHT22;21924;51.934;7.414;2022-07-18T05:13:54;18.10;96.40
35804;DHT22;21924;51.934;7.414;2022-07-18T05:16:39;18.20;96.30
35804;DHT22;21924;51.934;7.414;2022-07-18T05:19:23;18.10;96.20
35804;DHT22;21924;51.934;7.414;2022-07-18T05:22:07;18.20;96.20
35804;DHT22;21924;51.934;7.414;2022-07-18T05:24:51;18.10;96.30
35804;DHT22;21924;51.934;7.414;2022-07-18T05:27:37;18.00;96.50
35804;DHT22;21924;51.934;7.414;2022-07-18T05:30:22;18.10;96.80
35804;DHT22;21924;51.934;7.414;2022-07-18T05:33:07;18.10;96.70
35804;DHT22;21924;51.934;7.414;2022-07-18T05:35:52;18.20;96.80
35804;DHT22;21924;51.934;7.414;2022-07-18T05:38:36;18.20;96.60
35804;DHT22;21924;51.934;7.414;2022-07-18T05:41:20;18.30;97.20
35804;DHT22;21924;51.934;7.414;2022-07-18T05:44:05;18.40;96.90
35804;DHT22;21924;51.934;7.414;2022-07-18T05:46:49;18.30;97.00
35804;DHT22;21924;51.934;7.414;2022-07-18T05:49:33;18.40;97.40
35804;DHT22;21924;51.934;7.414;2022-07-18T05:52:18;18.40;97.00
35804;DHT22;21924;51.934;7.414;2022-07-18T05:55:02;18.50;97.50
35804;DHT22;21924;51.934;7.414;2022-07-18T05:57:47;18.60;97.60
35804;DHT22;21924;51.934;7.414;2022-07-18T06:00:33;18.60;97.40
35804;DHT22;21924;51.934;7.414;2022-07-18T06:03:17;18.60;97.70
35804;DHT22;21924;51.934;7.414;2022-07-18T06:06:02;18.60;97.80
35804;DHT22;21924;51.934;7.414;2022-07-18T06:08:46;18.70;97.70
35804;DHT22;21924;51.934;7.414;2022-07-18T06:11:30;18.90;97.70
35804;DHT22;21924;51.934;7.414;2022-07-18T06:14:15;19.00;98.00
35804;DHT22;21924;51.934;7.414;2022-07-18T06:16:59;19.10;98.20
35804;DHT22;21924;51.934;7.414;2022-07-18T06:19:44;19.20;97.50
35804;DHT22;21924;51.934;7.414;2022-07-18T06:22:28;19.20;97.60
35804;DHT22;21924;51.934;7.414;2022-07-18T06:25:13;19.10;97.90
35804;DHT22;21924;51.934;7.414;2022-07-18T06:27:57;19.20;98.00
35804;DHT22;21924;51.934;7.414;2022-07-18T06:30:41;19.20;98.10
35804;DHT22;21924;51.934;7.414;2022-07-18T06:33:26;19.20;98.20
35804;DHT22;21924;51.934;7.414;2022-07-18T06:36:10;19.20;98.40
35804;DHT22;21924;51.934;7.414;2022-07-18T06:38:56;19.30;98.20
35804;DHT22;21924;51.934;7.414;2022-07-18T06:41:40;19.40;97.70
35804;DHT22;21924;51.934;7.414;2022-07-18T06:44:24;19.50;97.70
35804;DHT22;21924;51.934;7.414;2022-07-18T06:47:09;19.60;97.60
35804;DHT22;21924;51.934;7.414;2022-07-18T06:49:53;19.70;97.20
35804;DHT22;21924;51.934;7.414;2022-07-18T06:52:41;19.90;97.30
35804;DHT22;21924;51.934;7.414;2022-07-18T06:55:26;20.10;97.10
35804;DHT22;21924;51.934;7.414;2022-07-18T06:58:10;20.30;97.30
35804;DHT22;21924;51.934;7.414;2022-07-18T07:00:54;20.50;97.00
35804;DHT22;21924;51.934;7.414;2022-07-18T07:03:39;20.80;96.60
35804;DHT22;21924;51.934;7.414;2022-07-18T07:06:23;21.10;96.50
35804;DHT22;21924;51.934;7.414;2022-07-18T07:09:07;21.10;95.80
35804;DHT22;21924;51.934;7.414;2022-07-18T07:11:52;21.10;95.70
35804;DHT22;21924;51.934;7.414;2022-07-18T07:14:37;21.30;96.50
35804;DHT22;21924;51.934;7.414;2022-07-18T07:17:21;21.20;96.50
35804;DHT22;21924;51.934;7.414;2022-07-18T07:20:06;21.10;96.90
35804;DHT22;21924;51.934;7.414;2022-07-18T07:22:52;21.10;97.30
35804;DHT22;21924;51.934;7.414;2022-07-18T07:25:37;21.20;97.40
35804;DHT22;21924;51.934;7.414;2022-07-18T07:28:22;21.30;97.50
35804;DHT22;21924;51.934;7.414;2022-07-18T07:31:06;21.40;96.20
35804;DHT22;21924;51.934;7.414;2022-07-18T07:33:51;21.60;95.60
35804;DHT22;21924;51.934;7.414;2022-07-18T07:36:36;21.90;95.50
35804;DHT22;21924;51.934;7.414;2022-07-18T07:39:20;22.10;95.00
35804;DHT22;21924;51.934;7.414;2022-07-18T07:42:04;22.30;94.30
35804;DHT22;21924;51.934;7.414;2022-07-18T07:44:49;22.50;94.10
35804;DHT22;21924;51.934;7.414;2022-07-18T07:47:35;22.70;94.60
35804;DHT22;21924;51.934;7.414;2022-07-18T07:50:19;22.80;93.90
35804;DHT22;21924;51.934;7.414;2022-07-18T07:53:04;22.90;94.10
35804;DHT22;21924;51.934;7.414;2022-07-18T07:55:49;23.00;93.30
35804;DHT22;21924;51.934;7.414;2022-07-18T07:58:34;22.90;93.10
35804;DHT22;21924;51.934;7.414;2022-07-18T08:01:18;22.80;93.80
35804;DHT22;21924;51.934;7.414;2022-07-18T08:04:04;22.90;94.00
35804;DHT22;21924;51.934;7.414;2022-07-18T08:06:48;23.00;93.30
35804;DHT22;21924;51.934;7.414;2022-07-18T08:09:33;23.20;93.10
35804;DHT22;21924;51.934;7.414;2022-07-18T08:12:17;23.30;92.60
35804;DHT22;21924;51.934;7.414;2022-07-18T08:15:02;23.20;93.00
35804;DHT22;21924;51.934;7.414;2022-07-18T08:17:47;23.40;93.30
35804;DHT22;21924;51.934;7.414;2022-07-18T08:20:31;23.60;92.40
35804;DHT22;21924;51.934;7.414;2022-07-18T08:23:20;23.60;92.60
35804;DHT22;21924;51.934;7.414;2022-07-18T08:26:04;23.70;92.30
35804;DHT22;21924;51.934;7.414;2022-07-18T08:28:48;23.90;92.40
35804;DHT22;21924;51.934;7.414;2022-07-18T08:31:34;24.00;92.50
35804;DHT22;21924;51.934;7.414;2022-07-18T08:34:18;24.10;92.20
35804;DHT22;21924;51.934;7.414;2022-07-18T08:41:15;24.20;92.20
35804;DHT22;21924;51.934;7.414;2022-07-18T08:55:40;25.00;91.00
35804;DHT22;21924;51.934;7.414;2022-07-18T08:58:25;25.20;91.00
35804;DHT22;21924;51.934;7.414;2022-07-18T09:01:09;25.40;91.10
35804;DHT22;21924;51.934;7.414;2022-07-18T09:03:54;25.40;90.20
35804;DHT22;21924;51.934;7.414;2022-07-18T09:06:57;25.40;90.10
35804;DHT22;21924;51.934;7.414;2022-07-18T09:09:52;25.60;89.60
35804;DHT22;21924;51.934;7.414;2022-07-18T09:12:37;25.70;88.40
35804;DHT22;21924;51.934;7.414;2022-07-18T09:15:22;25.80;89.80
35804;DHT22;21924;51.934;7.414;2022-07-18T09:18:06;25.90;88.80
35804;DHT22;21924;51.934;7.414;2022-07-18T09:21:02;26.10;87.60
35804;DHT22;21924;51.934;7.414;2022-07-18T09:23:52;26.20;87.70
35804;DHT22;21924;51.934;7.414;2022-07-18T09:26:42;26.30;87.80
35804;DHT22;21924;51.934;7.414;2022-07-18T09:29:27;26.50;86.90
35804;DHT22;21924;51.934;7.414;2022-07-18T09:32:21;26.60;87.40
35804;DHT22;21924;51.934;7.414;2022-07-18T09:38:08;26.60;86.60
35804;DHT22;21924;51.934;7.414;2022-07-18T09:40:54;26.70;86.00
35804;DHT22;21924;51.934;7.414;2022-07-18T09:43:39;26.90;86.60
35804;DHT22;21924;51.934;7.414;2022-07-18T09:46:23;27.10;86.20
35804;DHT22;21924;51.934;7.414;2022-07-18T09:49:11;27.10;85.70
35804;DHT22;21924;51.934;7.414;2022-07-18T09:52:07;27.30;86.60
35804;DHT22;21924;51.934;7.414;2022-07-18T09:55:04;27.40;85.80
35804;DHT22;21924;51.934;7.414;2022-07-18T09:58:15;27.60;85.20
35804;DHT22;21924;51.934;7.414;2022-07-18T10:01:03;27.70;85.20
35804;DHT22;21924;51.934;7.414;2022-07-18T10:03:47;28.00;84.80
35804;DHT22;21924;51.934;7.414;2022-07-18T10:06:35;28.30;83.60
35804;DHT22;21924;51.934;7.414;2022-07-18T10:09:19;28.40;82.70
35804;DHT22;21924;51.934;7.414;2022-07-18T10:12:05;28.40;83.00
35804;DHT22;21924;51.934;7.414;2022-07-18T10:14:50;28.30;83.80
35804;DHT22;21924;51.934;7.414;2022-07-18T10:17:34;28.30;82.30
35804;DHT22;21924;51.934;7.414;2022-07-18T10:20:38;28.40;83.90
35804;DHT22;21924;51.934;7.414;2022-07-18T10:23:25;28.70;83.30
35804;DHT22;21924;51.934;7.414;2022-07-18T10:26:26;28.90;84.30
35804;DHT22;21924;51.934;7.414;2022-07-18T10:29:15;29.10;83.10
35804;DHT22;21924;51.934;7.414;2022-07-18T10:32:03;29.20;79.70
35804;DHT22;21924;51.934;7.414;2022-07-18T10:34:47;29.20;80.10
35804;DHT22;21924;51.934;7.414;2022-07-18T10:37:32;29.50;81.10
35804;DHT22;21924;51.934;7.414;2022-07-18T10:40:28;29.70;80.40
35804;DHT22;21924;51.934;7.414;2022-07-18T10:46:15;29.80;77.70
35804;DHT22;21924;51.934;7.414;2022-07-18T10:49:00;29.50;77.40
35804;DHT22;21924;51.934;7.414;2022-07-18T10:51:44;29.70;78.90
35804;DHT22;21924;51.934;7.414;2022-07-18T10:54:28;30.00;78.60
35804;DHT22;21924;51.934;7.414;2022-07-18T10:57:13;30.10;77.60
35804;DHT22;21924;51.934;7.414;2022-07-18T11:00:10;30.20;78.00
35804;DHT22;21924;51.934;7.414;2022-07-18T11:03:07;30.50;77.20
35804;DHT22;21924;51.934;7.414;2022-07-18T11:05:54;30.50;77.80
35804;DHT22;21924;51.934;7.414;2022-07-18T11:08:39;30.60;78.50
35804;DHT22;21924;51.934;7.414;2022-07-18T11:11:23;30.70;78.40
35804;DHT22;21924;51.934;7.414;2022-07-18T11:14:07;30.80;77.80
35804;DHT22;21924;51.934;7.414;2022-07-18T11:17:04;31.00;78.60
35804;DHT22;21924;51.934;7.414;2022-07-18T11:23:27;31.10;77.50
35804;DHT22;21924;51.934;7.414;2022-07-18T11:26:17;31.40;76.60
35804;DHT22;21924;51.934;7.414;2022-07-18T11:29:08;31.30;75.40
35804;DHT22;21924;51.934;7.414;2022-07-18T11:31:57;31.50;77.00
35804;DHT22;21924;51.934;7.414;2022-07-18T11:34:49;31.50;75.80
35804;DHT22;21924;51.934;7.414;2022-07-18T11:37:35;31.90;75.50
35804;DHT22;21924;51.934;7.414;2022-07-18T11:40:20;31.90;74.40
35804;DHT22;21924;51.934;7.414;2022-07-18T12:02:08;32.90;72.30
35804;DHT22;21924;51.934;7.414;2022-07-18T12:04:53;32.70;72.40
35804;DHT22;21924;51.934;7.414;2022-07-18T12:07:37;32.70;72.40
35804;DHT22;21924;51.934;7.414;2022-07-18T12:10:22;32.70;72.90
35804;DHT22;21924;51.934;7.414;2022-07-18T12:13:06;33.00;73.20
35804;DHT22;21924;51.934;7.414;2022-07-18T12:15:51;33.40;72.80
35804;DHT22;21924;51.934;7.414;2022-07-18T12:18:35;33.50;70.20
35804;DHT22;21924;51.934;7.414;2022-07-18T12:25:04;32.60;71.60
35804;DHT22;21924;51.934;7.414;2022-07-18T12:39:38;33.00;72.30
35804;DHT22;21924;51.934;7.414;2022-07-18T12:42:31;33.10;72.80
35804;DHT22;21924;51.934;7.414;2022-07-18T12:45:16;33.40;72.90
35804;DHT22;21924;51.934;7.414;2022-07-18T12:48:01;33.80;72.20
35804;DHT22;21924;51.934;7.414;2022-07-18T12:50:46;33.90;71.30
35804;DHT22;21924;51.934;7.414;2022-07-18T12:53:38;34.10;71.30
35804;DHT22;21924;51.934;7.414;2022-07-18T12:56:22;34.20;70.80
35804;DHT22;21924;51.934;7.414;2022-07-18T12:59:06;34.30;70.40
35804;DHT22;21924;51.934;7.414;2022-07-18T13:01:51;34.00;71.50
35804;DHT22;21924;51.934;7.414;2022-07-18T13:05:06;34.30;71.10
35804;DHT22;21924;51.934;7.414;2022-07-18T13:08:17;34.40;70.30
35804;DHT22;21924;51.934;7.414;2022-07-18T13:11:10;34.70;69.20
35804;DHT22;21924;51.934;7.414;2022-07-18T13:14:26;34.80;69.30
35804;DHT22;21924;51.934;7.414;2022-07-18T13:17:49;34.80;71.50
35804;DHT22;21924;51.934;7.414;2022-07-18T13:20:34;35.20;69.00
35804;DHT22;21924;51.934;7.414;2022-07-18T13:23:19;35.70;69.90
35804;DHT22;21924;51.934;7.414;2022-07-18T13:26:03;36.20;68.70
35804;DHT22;21924;51.934;7.414;2022-07-18T13:28:48;36.10;68.60
35804;DHT22;21924;51.934;7.414;2022-07-18T13:31:32;35.90;67.50
35804;DHT22;21924;51.934;7.414;2022-07-18T13:34:17;36.30;68.20
35804;DHT22;21924;51.934;7.414;2022-07-18T13:37:01;36.40;67.50
35804;DHT22;21924;51.934;7.414;2022-07-18T13:39:46;36.30;67.20
35804;DHT22;21924;51.934;7.414;2022-07-18T13:42:30;35.80;67.60
35804;DHT22;21924;51.934;7.414;2022-07-18T13:45:14;35.90;67.10
35804;DHT22;21924;51.934;7.414;2022-07-18T13:47:59;36.70;65.80
35804;DHT22;21924;51.934;7.414;2022-07-18T13:50:43;37.00;65.70
35804;DHT22;21924;51.934;7.414;2022-07-18T13:53:28;37.30;66.00
35804;DHT22;21924;51.934;7.414;2022-07-18T13:56:12;37.90;65.80
35804;DHT22;21924;51.934;7.414;2022-07-18T13:58:57;38.60;65.50
35804;DHT22;21924;51.934;7.414;2022-07-18T14:02:01;38.70;64.20
35804;DHT22;21924;51.934;7.414;2022-07-18T14:05:23;39.20;64.30
35804;DHT22;21924;51.934;7.414;2022-07-18T14:08:09;39.30;63.30
35804;DHT22;21924;51.934;7.414;2022-07-18T14:11:15;39.10;63.40
35804;DHT22;21924;51.934;7.414;2022-07-18T14:14:20;38.90;62.90
35804;DHT22;21924;51.934;7.414;2022-07-18T14:17:04;39.20;62.70
35804;DHT22;21924;51.934;7.414;2022-07-18T14:19:49;39.30;61.90
35804;DHT22;21924;51.934;7.414;2022-07-18T14:22:34;38.40;62.80
35804;DHT22;21924;51.934;7.414;2022-07-18T14:25:18;38.90;62.70
35804;DHT22;21924;51.934;7.414;2022-07-18T14:28:03;39.20;61.70
35804;DHT22;21924;51.934;7.414;2022-07-18T14:30:47;39.00;62.30
35804;DHT22;21924;51.934;7.414;2022-07-18T14:33:32;39.30;61.40
35804;DHT22;21924;51.934;7.414;2022-07-18T14:36:17;39.40;61.00
35804;DHT22;21924;51.934;7.414;2022-07-18T14:39:01;39.80;61.20
35804;DHT22;21924;51.934;7.414;2022-07-18T14:41:45;39.80;60.40
35804;DHT22;21924;51.934;7.414;2022-07-18T14:44:30;39.60;60.70
35804;DHT22;21924;51.934;7.414;2022-07-18T14:47:14;39.80;60.20
35804;DHT22;21924;51.934;7.414;2022-07-18T14:49:58;39.40;59.60
35804;DHT22;21924;51.934;7.414;2022-07-18T14:52:43;39.20;60.20
35804;DHT22;21924;51.934;7.414;2022-07-18T14:55:27;39.10;59.90
35804;DHT22;21924;51.934;7.414;2022-07-18T14:58:12;38.70;60.00
35804;DHT22;21924;51.934;7.414;2022-07-18T15:00:56;38.90;60.00
35804;DHT22;21924;51.934;7.414;2022-07-18T15:03:40;38.90;60.10
35804;DHT22;21924;51.934;7.414;2022-07-18T15:06:25;38.40;60.10
35804;DHT22;21924;51.934;7.414;2022-07-18T15:09:10;38.60;60.50
35804;DHT22;21924;51.934;7.414;2022-07-18T15:11:54;38.40;61.30
35804;DHT22;21924;51.934;7.414;2022-07-18T15:14:39;38.10;60.10
35804;DHT22;21924;51.934;7.414;2022-07-18T15:17:24;37.20;60.50
35804;DHT22;21924;51.934;7.414;2022-07-18T15:20:09;36.90;60.90
35804;DHT22;21924;51.934;7.414;2022-07-18T15:22:55;36.40;62.00
35804;DHT22;21924;51.934;7.414;2022-07-18T15:25:39;36.00;61.10
35804;DHT22;21924;51.934;7.414;2022-07-18T15:28:23;35.90;61.80
35804;DHT22;21924;51.934;7.414;2022-07-18T15:31:08;36.00;61.40
35804;DHT22;21924;51.934;7.414;2022-07-18T15:33:52;35.90;60.90
35804;DHT22;21924;51.934;7.414;2022-07-18T15:36:36;36.10;62.10
35804;DHT22;21924;51.934;7.414;2022-07-18T15:39:21;36.00;61.90
35804;DHT22;21924;51.934;7.414;2022-07-18T15:42:05;35.60;61.90
35804;DHT22;21924;51.934;7.414;2022-07-18T15:44:49;34.90;65.30
35804;DHT22;21924;51.934;7.414;2022-07-18T15:47:34;34.10;67.70
35804;DHT22;21924;51.934;7.414;2022-07-18T15:50:18;33.60;66.20
35804;DHT22;21924;51.934;7.414;2022-07-18T15:53:03;33.20;65.80
35804;DHT22;21924;51.934;7.414;2022-07-18T15:55:47;32.80;66.30
35804;DHT22;21924;51.934;7.414;2022-07-18T15:58:32;32.70;65.20
35804;DHT22;21924;51.934;7.414;2022-07-18T16:01:16;32.50;65.60
35804;DHT22;21924;51.934;7.414;2022-07-18T16:04:00;32.50;65.60
35804;DHT22;21924;51.934;7.414;2022-07-18T16:06:46;32.40;65.30
35804;DHT22;21924;51.934;7.414;2022-07-18T16:09:30;32.30;64.90
35804;DHT22;21924;51.934;7.414;2022-07-18T16:12:15;32.30;66.70
35804;DHT22;21924;51.934;7.414;2022-07-18T16:14:59;32.30;66.70
35804;DHT22;21924;51.934;7.414;2022-07-18T16:17:44;32.30;67.40
35804;DHT22;21924;51.934;7.414;2022-07-18T16:20:28;32.20;65.70
35804;DHT22;21924;51.934;7.414;2022-07-18T16:23:14;32.10;66.70
35804;DHT22;21924;51.934;7.414;2022-07-18T16:25:59;31.90;66.00
35804;DHT22;21924;51.934;7.414;2022-07-18T16:28:43;31.90;66.90
35804;DHT22;21924;51.934;7.414;2022-07-18T16:31:28;32.00;66.30
35804;DHT22;21924;51.934;7.414;2022-07-18T16:34:12;32.10;66.70
35804;DHT22;21924;51.934;7.414;2022-07-18T16:36:57;32.00;65.70
35804;DHT22;21924;51.934;7.414;2022-07-18T16:39:43;31.90;67.00
35804;DHT22;21924;51.934;7.414;2022-07-18T16:42:27;31.90;67.80
35804;DHT22;21924;51.934;7.414;2022-07-18T16:45:12;31.80;67.30
35804;DHT22;21924;51.934;7.414;2022-07-18T16:47:57;31.80;67.60
35804;DHT22;21924;51.934;7.414;2022-07-18T16:50:42;31.60;66.80
35804;DHT22;21924;51.934;7.414;2022-07-18T16:53:27;31.60;68.10
35804;DHT22;21924;51.934;7.414;2022-07-18T16:56:12;31.60;67.00
35804;DHT22;21924;51.934;7.414;2022-07-18T16:58:57;31.60;67.60
35804;DHT22;21924;51.934;7.414;2022-07-18T17:01:43;31.70;68.20
35804;DHT22;21924;51.934;7.414;2022-07-18T17:04:28;31.80;67.30
35804;DHT22;21924;51.934;7.414;2022-07-18T17:07:12;32.20;66.90
35804;DHT22;21924;51.934;7.414;2022-07-18T17:09:58;32.90;66.70
35804;DHT22;21924;51.934;7.414;2022-07-18T17:12:43;33.70;66.20
35804;DHT22;21924;51.934;7.414;2022-07-18T17:15:27;34.40;66.10
35804;DHT22;21924;51.934;7.414;2022-07-18T17:18:16;35.00;64.90
35804;DHT22;21924;51.934;7.414;2022-07-18T17:21:03;35.30;64.60
35804;DHT22;21924;51.934;7.414;2022-07-18T17:23:48;35.50;64.10
35804;DHT22;21924;51.934;7.414;2022-07-18T17:26:32;35.40;64.50
35804;DHT22;21924;51.934;7.414;2022-07-18T17:29:16;36.10;63.80
35804;DHT22;21924;51.934;7.414;2022-07-18T17:32:04;36.20;64.60
35804;DHT22;21924;51.934;7.414;2022-07-18T17:34:48;36.10;64.80
35804;DHT22;21924;51.934;7.414;2022-07-18T17:37:33;35.50;65.90
35804;DHT22;21924;51.934;7.414;2022-07-18T17:40:21;34.80;65.30
35804;DHT22;21924;51.934;7.414;2022-07-18T17:43:06;34.20;66.30
35804;DHT22;21924;51.934;7.414;2022-07-18T17:45:54;33.50;66.90
35804;DHT22;21924;51.934;7.414;2022-07-18T17:48:40;32.90;68.70
35804;DHT22;21924;51.934;7.414;2022-07-18T17:51:26;32.40;67.80
35804;DHT22;21924;51.934;7.414;2022-07-18T17:54:13;32.00;68.10
35804;DHT22;21924;51.934;7.414;2022-07-18T17:57:01;31.80;68.10
35804;DHT22;21924;51.934;7.414;2022-07-18T17:59:47;31.60;68.40
35804;DHT22;21924;51.934;7.414;2022-07-18T18:02:31;31.40;70.10
35804;DHT22;21924;51.934;7.414;2022-07-18T18:05:15;31.10;69.40
35804;DHT22;21924;51.934;7.414;2022-07-18T18:08:00;31.00;69.60
35804;DHT22;21924;51.934;7.414;2022-07-18T18:10:57;30.80;70.30
35804;DHT22;21924;51.934;7.414;2022-07-18T18:13:41;30.70;71.00
35804;DHT22;21924;51.934;7.414;2022-07-18T18:16:26;30.50;71.90
35804;DHT22;21924;51.934;7.414;2022-07-18T18:19:10;30.40;71.40
35804;DHT22;21924;51.934;7.414;2022-07-18T18:21:55;30.20;73.50
35804;DHT22;21924;51.934;7.414;2022-07-18T18:24:39;30.20;72.40
35804;DHT22;21924;51.934;7.414;2022-07-18T18:27:24;30.10;74.40
35804;DHT22;21924;51.934;7.414;2022-07-18T18:30:10;29.90;74.70
35804;DHT22;21924;51.934;7.414;2022-07-18T18:32:55;29.70;75.80
35804;DHT22;21924;51.934;7.414;2022-07-18T18:35:39;29.50;74.70
35804;DHT22;21924;51.934;7.414;2022-07-18T18:38:24;29.40;75.80
35804;DHT22;21924;51.934;7.414;2022-07-18T18:41:08;29.20;77.80
35804;DHT22;21924;51.934;7.414;2022-07-18T18:43:53;28.90;78.40
35804;DHT22;21924;51.934;7.414;2022-07-18T18:46:38;28.70;78.50
35804;DHT22;21924;51.934;7.414;2022-07-18T18:49:22;28.60;78.20
35804;DHT22;21924;51.934;7.414;2022-07-18T18:52:07;28.40;79.40
35804;DHT22;21924;51.934;7.414;2022-07-18T18:54:51;28.20;77.90
35804;DHT22;21924;51.934;7.414;2022-07-18T18:57:35;28.10;77.90
35804;DHT22;21924;51.934;7.414;2022-07-18T19:00:20;28.00;77.30
35804;DHT22;21924;51.934;7.414;2022-07-18T19:03:05;27.90;79.00
35804;DHT22;21924;51.934;7.414;2022-07-18T19:05:50;27.80;77.00
35804;DHT22;21924;51.934;7.414;2022-07-18T19:08:34;27.80;78.00
35804;DHT22;21924;51.934;7.414;2022-07-18T19:11:19;27.70;78.00
35804;DHT22;21924;51.934;7.414;2022-07-18T19:14:03;27.60;77.10
35804;DHT22;21924;51.934;7.414;2022-07-18T19:16:48;27.50;77.30
35804;DHT22;21924;51.934;7.414;2022-07-18T19:19:32;27.40;77.60
35804;DHT22;21924;51.934;7.414;2022-07-18T19:22:17;27.30;77.60
35804;DHT22;21924;51.934;7.414;2022-07-18T19:25:07;27.10;77.60
35804;DHT22;21924;51.934;7.414;2022-07-18T19:27:58;27.00;77.80
35804;DHT22;21924;51.934;7.414;2022-07-18T19:30:43;26.80;78.40
35804;DHT22;21924;51.934;7.414;2022-07-18T19:33:29;26.70;78.80
35804;DHT22;21924;51.934;7.414;2022-07-18T19:36:14;26.60;79.00
35804;DHT22;21924;51.934;7.414;2022-07-18T19:38:58;26.50;78.90
35804;DHT22;21924;51.934;7.414;2022-07-18T19:41:43;26.40;79.00
35804;DHT22;21924;51.934;7.414;2022-07-18T19:44:29;26.30;78.90
35804;DHT22;21924;51.934;7.414;2022-07-18T19:47:42;26.20;79.00
35804;DHT22;21924;51.934;7.414;2022-07-18T19:51:47;26.00;78.90
35804;DHT22;21924;51.934;7.414;2022-07-18T19:58:52;25.80;79.30
35804;DHT22;21924;51.934;7.414;2022-07-18T20:06:16;25.60;79.80
35804;DHT22;21924;51.934;7.414;2022-07-18T20:09:00;25.50;79.50
35804;DHT22;21924;51.934;7.414;2022-07-18T20:11:45;25.40;79.50
35804;DHT22;21924;51.934;7.414;2022-07-18T20:14:30;25.30;79.60
35804;DHT22;21924;51.934;7.414;2022-07-18T20:17:14;25.30;80.50
35804;DHT22;21924;51.934;7.414;2022-07-18T20:19:58;25.20;81.20
35804;DHT22;21924;51.934;7.414;2022-07-18T20:22:42;25.20;81.70
35804;DHT22;21924;51.934;7.414;2022-07-18T20:29:24;25.10;81.00
35804;DHT22;21924;51.934;7.414;2022-07-18T20:32:08;25.00;80.80
35804;DHT22;21924;51.934;7.414;2022-07-18T20:34:55;25.00;81.20
35804;DHT22;21924;51.934;7.414;2022-07-18T20:37:45;24.90;81.10
35804;DHT22;21924;51.934;7.414;2022-07-18T20:40:29;24.90;80.60
35804;DHT22;21924;51.934;7.414;2022-07-18T20:43:14;24.80;80.90
35804;DHT22;21924;51.934;7.414;2022-07-18T20:45:59;24.70;81.00
35804;DHT22;21924;51.934;7.414;2022-07-18T20:48:43;24.60;81.30
35804;DHT22;21924;51.934;7.414;2022-07-18T20:51:27;24.60;82.10
35804;DHT22;21924;51.934;7.414;2022-07-18T20:54:11;24.50;84.00
35804;DHT22;21924;51.934;7.414;2022-07-18T20:56:56;24.30;85.10
35804;DHT22;21924;51.934;7.414;2022-07-18T20:59:44;24.20;85.10
35804;DHT22;21924;51.934;7.414;2022-07-18T21:02:28;24.00;84.90
35804;DHT22;21924;51.934;7.414;2022-07-18T21:05:13;24.00;85.10
35804;DHT22;21924;51.934;7.414;2022-07-18T21:07:57;23.90;84.80
35804;DHT22;21924;51.934;7.414;2022-07-18T21:10:42;23.80;84.80
35804;DHT22;21924;51.934;7.414;2022-07-18T21:13:27;23.80;84.50
35804;DHT22;21924;51.934;7.414;2022-07-18T21:16:11;23.80;84.60
35804;DHT22;21924;51.934;7.414;2022-07-18T21:18:55;23.80;84.30
35804;DHT22;21924;51.934;7.414;2022-07-18T21:21:40;23.80;85.70
35804;DHT22;21924;51.934;7.414;2022-07-18T21:24:24;23.80;86.40
35804;DHT22;21924;51.934;7.414;2022-07-18T21:27:08;23.70;87.40
35804;DHT22;21924;51.934;7.414;2022-07-18T21:29:53;23.50;88.40
35804;DHT22;21924;51.934;7.414;2022-07-18T21:32:38;23.40;88.40
35804;DHT22;21924;51.934;7.414;2022-07-18T21:35:22;23.30;88.20
35804;DHT22;21924;51.934;7.414;2022-07-18T21:38:07;23.20;88.20
35804;DHT22;21924;51.934;7.414;2022-07-18T21:40:52;23.20;89.10
35804;DHT22;21924;51.934;7.414;2022-07-18T21:43:36;23.10;88.90
35804;DHT22;21924;51.934;7.414;2022-07-18T21:46:21;23.00;89.40
35804;DHT22;21924;51.934;7.414;2022-07-18T21:49:06;23.00;89.90
35804;DHT22;21924;51.934;7.414;2022-07-18T21:51:51;23.00;90.00
35804;DHT22;21924;51.934;7.414;2022-07-18T21:54:36;23.00;90.60
35804;DHT22;21924;51.934;7.414;2022-07-18T21:57:21;22.80;90.40